Heat Index [SAI AWOS/ASOS Display]_________FAA Disclaimer: "Not for use in aviation at this time______________" Untitled Document
Hamilton Municipal Airport NY (VGC)
000
06:27
17/07/25
00
N/A
N/A
29.96
N/A
1134
61(F), 16(C)
59(F), 15(C)
61 F
94%
SCT010 BKN026 OVC036
7
N/A
N/A
N/A
06:27 zulu Wind Calm, Altimeter 29.96
METAR KVGC 250627Z AUTO 00000KT 7SM SCT010 BKN026 OVC036 16/15 A2996 A02
METAR:
FAA Disclaimer--Advisory Use ONLY, not for flight info--
INFO:
Wind Direction:
Wind Speed:
Wind Gust:
Wind Variable:
Altimeter:
Dens Alt:
Elev:
Temp:
Dwpt:
Wind Chill
Rel Humidity:
Ceiling:
Visibility:
Prsnt Wea:
PCPN:
Remarks:
How to read the WebPage